createdAt,value
2022-07-28T00:00:25.216Z,101482.94
2022-07-28T00:01:26.921Z,101486.47
2022-07-28T00:02:29.645Z,101479.56
2022-07-28T00:03:31.398Z,101481.41
2022-07-28T00:04:34.595Z,101473.66
2022-07-28T00:05:36.302Z,101483.56
2022-07-28T00:06:40.222Z,101478.34
2022-07-28T00:07:41.860Z,101480.19
2022-07-28T00:08:44.380Z,101479.34
2022-07-28T00:09:46.036Z,101477.63
2022-07-28T00:10:48.636Z,101473.28
2022-07-28T00:11:54.298Z,101475.97
2022-07-28T00:12:57.388Z,101479.66
2022-07-28T00:13:59.091Z,101475.25
2022-07-28T00:15:02.057Z,101477.94
2022-07-28T00:16:04.090Z,101478.97
2022-07-28T00:17:06.815Z,101475.44
2022-07-28T00:18:08.499Z,101479.09
2022-07-28T00:19:11.109Z,101489.00
2022-07-28T00:20:14.161Z,101481.13
2022-07-28T00:21:15.907Z,101485.66
2022-07-28T00:22:19.945Z,101484.78
2022-07-28T00:23:21.571Z,101486.63
2022-07-28T00:24:24.393Z,101476.88
2022-07-28T00:25:26.363Z,101476.06
2022-07-28T00:26:28.972Z,101480.59
2022-07-28T00:27:30.511Z,101474.38
2022-07-28T00:28:33.116Z,101472.66
2022-07-28T00:29:49.211Z,101475.22
2022-07-28T00:30:55.203Z,101469.84
2022-07-28T00:31:56.964Z,101472.66
2022-07-28T00:32:59.500Z,101468.44
2022-07-28T00:34:01.123Z,101462.09
2022-07-28T00:35:03.913Z,101457.72
2022-07-28T00:36:11.439Z,101462.09
2022-07-28T00:37:15.147Z,101465.91
2022-07-28T00:38:18.279Z,101463.38
2022-07-28T00:39:20.934Z,101457.16
2022-07-28T00:40:22.561Z,101463.38
2022-07-28T00:41:25.235Z,101468.75
2022-07-28T00:42:26.875Z,101452.66
2022-07-28T00:43:29.649Z,101462.53
2022-07-28T00:44:32.704Z,101464.38
2022-07-28T00:45:34.457Z,101462.53
2022-07-28T00:46:37.620Z,101464.38
2022-07-28T00:47:39.289Z,101455.34
2022-07-28T00:48:45.873Z,101458.03
2022-07-28T00:49:50.241Z,101459.72
2022-07-28T00:50:52.641Z,101458.88
2022-07-28T00:51:55.534Z,101457.16
2022-07-28T00:52:58.161Z,101463.38
2022-07-28T00:54:02.320Z,101464.38
2022-07-28T00:55:05.359Z,101465.41
2022-07-28T00:56:08.670Z,101459.19
2022-07-28T00:57:10.278Z,101458.31
2022-07-28T00:58:13.432Z,101462.00
2022-07-28T00:59:15.027Z,101448.56
2022-07-28T01:00:17.860Z,101456.63
2022-07-28T01:01:20.158Z,101448.56
2022-07-28T01:02:23.368Z,101448.75
2022-07-28T01:03:26.247Z,101447.91
2022-07-28T01:04:29.559Z,101445.22
2022-07-28T01:05:44.108Z,101447.91
2022-07-28T01:07:03.532Z,101451.75
2022-07-28T01:08:13.264Z,101454.44
2022-07-28T01:09:32.392Z,101460.78
2022-07-28T01:10:45.120Z,101456.56
2022-07-28T01:11:59.009Z,101456.56
2022-07-28T01:13:07.002Z,101449.50
2022-07-28T01:14:12.433Z,101447.97
2022-07-28T01:15:21.245Z,101439.19
2022-07-28T01:16:24.338Z,101452.59
2022-07-28T01:17:32.989Z,101449.91
2022-07-28T01:18:44.549Z,101445.72
2022-07-28T01:19:50.448Z,101451.38
2022-07-28T01:20:56.043Z,101442.66
2022-07-28T01:22:00.430Z,101442.78
2022-07-28T01:23:14.265Z,101439.44
2022-07-28T01:24:24.943Z,101450.28
2022-07-28T01:25:40.100Z,101441.56
2022-07-28T01:27:00.666Z,101444.38
2022-07-28T01:28:16.074Z,101440.84
2022-07-28T01:29:32.230Z,101440.19
2022-07-28T01:30:42.127Z,101448.53
2022-07-28T01:31:48.461Z,101447.84
2022-07-28T01:32:58.578Z,101449.81
2022-07-28T01:34:08.103Z,101446.47
2022-07-28T01:35:15.018Z,101448.44
2022-07-28T01:36:20.012Z,101450.44
2022-07-28T01:37:27.607Z,101443.38
2022-07-28T01:38:32.900Z,101440.00
2022-07-28T01:39:37.640Z,101438.31
2022-07-28T01:40:43.926Z,101443.00
2022-07-28T01:41:47.591Z,101437.75
2022-07-28T01:42:53.479Z,101437.94
2022-07-28T01:43:58.840Z,101446.97
2022-07-28T01:45:03.060Z,101434.84
2022-07-28T01:46:07.300Z,101434.84
2022-07-28T01:47:11.632Z,101435.69
2022-07-28T01:48:16.929Z,101445.72
2022-07-28T01:49:22.248Z,101441.03
2022-07-28T01:50:26.458Z,101438.53
2022-07-28T01:51:31.355Z,101438.53
2022-07-28T01:52:34.669Z,101438.53
2022-07-28T01:53:39.254Z,101436.84
2022-07-28T01:54:45.549Z,101427.81
2022-07-28T01:55:51.422Z,101418.91
2022-07-28T01:56:55.662Z,101436.16
2022-07-28T01:57:59.066Z,101425.56
2022-07-28T01:59:06.077Z,101432.75
2022-07-28T02:00:12.112Z,101431.09
2022-07-28T02:01:18.158Z,101426.53
2022-07-28T02:02:22.465Z,101428.53
2022-07-28T02:03:26.631Z,101423.47
2022-07-28T02:04:29.836Z,101429.69
2022-07-28T02:05:34.617Z,101426.28
2022-07-28T02:06:39.187Z,101432.50
2022-07-28T02:07:43.282Z,101422.94
2022-07-28T02:08:46.942Z,101424.94
2022-07-28T02:09:50.814Z,101425.91
2022-07-28T02:11:13.438Z,101421.53
2022-07-28T02:12:18.645Z,101423.53
2022-07-28T02:13:20.944Z,101425.50
2022-07-28T02:14:25.750Z,101425.50
2022-07-28T02:15:29.647Z,101428.34
2022-07-28T02:16:33.660Z,101424.81
2022-07-28T02:17:37.134Z,101424.69
2022-07-28T02:18:40.840Z,101415.78
2022-07-28T02:19:44.958Z,101422.13
2022-07-28T02:20:47.711Z,101422.13
2022-07-28T02:21:50.097Z,101424.97
2022-07-28T02:22:54.300Z,101419.63
2022-07-28T02:23:57.216Z,101423.13
2022-07-28T02:25:00.110Z,101419.44
2022-07-28T02:26:05.237Z,101415.94
2022-07-28T02:27:11.725Z,101413.25
2022-07-28T02:28:15.640Z,101406.91
2022-07-28T02:29:49.262Z,101406.91
2022-07-28T02:30:50.964Z,101411.41
2022-07-28T02:32:01.214Z,101407.19
2022-07-28T02:33:09.094Z,101409.16
2022-07-28T02:34:14.898Z,101400.31
2022-07-28T02:35:29.038Z,101404.66
2022-07-28T02:36:41.353Z,101402.97
2022-07-28T02:37:55.615Z,101404.94
2022-07-28T02:39:02.928Z,101405.13
2022-07-28T02:40:10.274Z,101401.59
2022-07-28T02:41:16.315Z,101401.59
2022-07-28T02:42:23.796Z,101399.03
2022-07-28T02:43:48.970Z,101405.25
2022-07-28T02:44:56.810Z,101398.06
2022-07-28T02:46:11.250Z,101404.41
2022-07-28T02:47:19.016Z,101403.56
2022-07-28T02:48:27.142Z,101399.88
2022-07-28T02:49:32.473Z,101392.81
2022-07-28T02:50:35.417Z,101401.72
2022-07-28T02:51:37.930Z,101396.53
2022-07-28T02:52:43.972Z,101397.66
2022-07-28T02:53:46.970Z,101392.56
2022-07-28T02:54:51.906Z,101387.38
2022-07-28T02:55:55.679Z,101392.06
2022-07-28T02:56:59.099Z,101395.56
2022-07-28T02:58:02.101Z,101388.63
2022-07-28T02:59:10.138Z,101396.00
2022-07-28T03:00:14.202Z,101393.31
2022-07-28T03:01:18.845Z,101391.59
2022-07-28T03:02:24.048Z,101383.88
2022-07-28T03:03:26.303Z,101392.03
2022-07-28T03:04:47.517Z,101387.81
2022-07-28T03:05:50.838Z,101380.81
2022-07-28T03:06:52.417Z,101394.34
2022-07-28T03:07:56.544Z,101396.31
2022-07-28T03:08:58.283Z,101389.28
2022-07-28T03:10:01.620Z,101389.28
2022-07-28T03:11:08.586Z,101395.59
2022-07-28T03:12:11.931Z,101395.06
2022-07-28T03:13:14.278Z,101396.06
2022-07-28T03:14:17.047Z,101398.75
2022-07-28T03:15:19.065Z,101388.31
2022-07-28T03:16:21.659Z,101390.28
2022-07-28T03:17:26.017Z,101389.59
2022-07-28T03:18:29.055Z,101385.22
2022-07-28T03:19:30.677Z,101382.84
2022-07-28T03:20:33.522Z,101382.16
2022-07-28T03:21:35.121Z,101384.84
2022-07-28T03:22:37.791Z,101381.44
2022-07-28T03:23:43.096Z,101384.28
2022-07-28T03:24:48.961Z,101391.47
2022-07-28T03:25:55.867Z,101391.59
2022-07-28T03:27:02.451Z,101390.78
2022-07-28T03:28:08.147Z,101390.78
2022-07-28T03:29:11.143Z,101397.25
2022-07-28T03:30:16.204Z,101389.50
2022-07-28T03:31:20.540Z,101391.34
2022-07-28T03:32:26.665Z,101394.19
2022-07-28T03:33:29.946Z,101397.53
2022-07-28T03:34:36.508Z,101402.06
2022-07-28T03:35:43.533Z,101396.69
2022-07-28T03:36:50.682Z,101402.22
2022-07-28T03:37:55.989Z,101398.69
2022-07-28T03:39:01.600Z,101407.69
2022-07-28T03:40:04.869Z,101400.69
2022-07-28T03:41:10.465Z,101402.50
2022-07-28T03:42:12.834Z,101398.97
2022-07-28T03:43:17.544Z,101398.97
2022-07-28T03:44:27.769Z,101405.31
2022-07-28T03:45:31.938Z,101397.28
2022-07-28T03:46:34.029Z,101396.59
2022-07-28T03:47:36.652Z,101401.09
2022-07-28T03:48:39.958Z,101395.88
2022-07-28T03:49:46.561Z,101403.09
2022-07-28T03:50:48.383Z,101399.56
2022-07-28T03:51:51.128Z,101399.69
2022-07-28T03:52:53.800Z,101405.88
2022-07-28T03:53:56.443Z,101406.75
2022-07-28T03:54:58.107Z,101403.91
2022-07-28T03:56:00.658Z,101411.94
2022-07-28T03:57:02.319Z,101415.63
2022-07-28T03:58:04.883Z,101404.06
2022-07-28T03:59:06.545Z,101413.94
2022-07-28T04:00:10.618Z,101413.06
2022-07-28T04:01:15.372Z,101412.22
2022-07-28T04:02:18.064Z,101406.88
2022-07-28T04:03:42.429Z,101414.91
2022-07-28T04:04:44.267Z,101406.88
2022-07-28T04:05:47.358Z,101406.88
2022-07-28T04:06:49.978Z,101403.38
2022-07-28T04:07:52.582Z,101403.22
2022-07-28T04:08:54.209Z,101402.53
2022-07-28T04:09:56.723Z,101402.38
2022-07-28T04:10:58.401Z,101397.84
2022-07-28T04:12:00.905Z,101401.22
2022-07-28T04:13:02.639Z,101403.91
2022-07-28T04:14:05.449Z,101398.41
2022-07-28T04:15:12.658Z,101401.94
2022-07-28T04:16:15.249Z,101406.31
2022-07-28T04:17:16.898Z,101401.78
2022-07-28T04:18:19.547Z,101410.66
2022-07-28T04:19:22.084Z,101409.69
2022-07-28T04:20:26.398Z,101403.34
2022-07-28T04:21:28.987Z,101406.84
2022-07-28T04:22:30.563Z,101407.69
2022-07-28T04:23:33.650Z,101405.03
2022-07-28T04:24:35.237Z,101402.34
2022-07-28T04:25:37.877Z,101399.81
2022-07-28T04:26:41.864Z,101398.97
2022-07-28T04:27:47.142Z,101393.47
2022-07-28T04:28:48.762Z,101399.66
2022-07-28T04:29:51.317Z,101396.97
2022-07-28T04:30:53.394Z,101397.84
2022-07-28T04:31:56.013Z,101391.63
2022-07-28T04:32:58.234Z,101390.66
2022-07-28T04:34:00.955Z,101387.97
2022-07-28T04:35:02.624Z,101395.03
2022-07-28T04:36:07.173Z,101395.88
2022-07-28T04:37:12.664Z,101395.88
2022-07-28T04:38:17.712Z,101390.53
2022-07-28T04:39:20.302Z,101390.53
2022-07-28T04:40:21.905Z,101391.34
2022-07-28T04:41:24.440Z,101394.00
2022-07-28T04:42:26.626Z,101393.88
2022-07-28T04:43:29.267Z,101393.88
2022-07-28T04:44:30.832Z,101393.88
2022-07-28T04:45:33.579Z,101403.75
2022-07-28T04:46:35.810Z,101397.53
2022-07-28T04:47:38.877Z,101407.41
2022-07-28T04:48:42.318Z,101407.41
2022-07-28T04:49:44.109Z,101409.09
2022-07-28T04:50:46.934Z,101405.44
2022-07-28T04:51:51.721Z,101408.81
2022-07-28T04:52:54.787Z,101413.88
2022-07-28T04:53:56.372Z,101406.56
2022-07-28T04:54:58.973Z,101408.22
2022-07-28T04:56:00.573Z,101409.94
2022-07-28T04:57:10.264Z,101410.63
2022-07-28T04:58:13.014Z,101414.00
2022-07-28T04:59:15.981Z,101412.69
2022-07-28T05:00:18.669Z,101408.19
2022-07-28T05:01:21.673Z,101409.03
2022-07-28T05:02:23.674Z,101412.56
2022-07-28T05:03:26.219Z,101408.91
2022-07-28T05:04:27.937Z,101409.59
2022-07-28T05:05:30.804Z,101410.44
2022-07-28T05:06:32.380Z,101406.78
2022-07-28T05:07:37.338Z,101406.78
2022-07-28T05:08:39.936Z,101407.78
2022-07-28T05:09:41.514Z,101407.59
2022-07-28T05:10:44.082Z,101410.03
2022-07-28T05:11:45.726Z,101407.34
2022-07-28T05:12:49.219Z,101403.53
2022-07-28T05:13:50.810Z,101406.88
2022-07-28T05:14:53.442Z,101410.53
2022-07-28T05:15:56.054Z,101402.25
2022-07-28T05:16:57.691Z,101403.91
2022-07-28T05:18:01.118Z,101413.66
2022-07-28T05:19:03.416Z,101408.13
2022-07-28T05:20:08.416Z,101404.47
2022-07-28T05:21:10.160Z,101412.38
2022-07-28T05:22:12.705Z,101410.38
2022-07-28T05:23:17.529Z,101400.34
2022-07-28T05:24:20.238Z,101406.44
2022-07-28T05:25:23.481Z,101403.59
2022-07-28T05:26:26.834Z,101402.47
2022-07-28T05:27:28.488Z,101410.91
2022-07-28T05:28:31.253Z,101411.84
2022-07-28T05:29:37.655Z,101412.81
2022-07-28T05:30:50.139Z,101405.56
2022-07-28T05:31:52.020Z,101407.19
2022-07-28T05:32:59.140Z,101402.75
2022-07-28T05:34:00.757Z,101407.19
2022-07-28T05:35:03.390Z,101397.38
2022-07-28T05:36:06.676Z,101398.31
2022-07-28T05:37:08.809Z,101398.22
2022-07-28T05:38:11.769Z,101398.19
2022-07-28T05:39:16.040Z,101397.09
2022-07-28T05:40:19.095Z,101399.69
2022-07-28T05:41:20.714Z,101399.75
2022-07-28T05:42:25.440Z,101399.63
2022-07-28T05:43:26.997Z,101400.38
2022-07-28T05:44:30.295Z,101401.31
2022-07-28T05:45:34.285Z,101401.34
2022-07-28T05:46:36.873Z,101396.16
2022-07-28T05:47:43.791Z,101394.72
2022-07-28T05:48:46.860Z,101395.06
2022-07-28T05:49:48.568Z,101398.13
2022-07-28T05:50:52.170Z,101389.59
2022-07-28T05:51:53.804Z,101396.16
2022-07-28T05:52:56.450Z,101397.38
2022-07-28T05:53:58.141Z,101396.72
2022-07-28T05:55:02.098Z,101396.94
2022-07-28T05:56:04.994Z,101392.59
2022-07-28T05:57:06.737Z,101392.59
2022-07-28T05:58:09.286Z,101386.41
2022-07-28T05:59:10.918Z,101394.50
2022-07-28T06:00:16.296Z,101391.97
2022-07-28T06:01:17.957Z,101386.13
2022-07-28T06:02:20.675Z,101394.38
2022-07-28T06:03:22.281Z,101383.94
2022-07-28T06:04:26.109Z,101396.09
2022-07-28T06:05:30.730Z,101392.41
2022-07-28T06:06:33.301Z,101392.91
2022-07-28T06:07:42.974Z,101393.09
2022-07-28T06:08:48.143Z,101393.75
2022-07-28T06:09:49.794Z,101392.75
2022-07-28T06:11:01.949Z,101384.50
2022-07-28T06:12:05.446Z,101386.69
2022-07-28T06:13:07.008Z,101389.75
2022-07-28T06:14:09.555Z,101386.03
2022-07-28T06:15:13.690Z,101383.00
2022-07-28T06:16:16.566Z,101389.06
2022-07-28T06:17:18.439Z,101385.69
2022-07-28T06:18:22.169Z,101386.03
2022-07-28T06:19:24.779Z,101392.25
2022-07-28T06:20:27.810Z,101387.06
2022-07-28T06:21:32.841Z,101387.53
2022-07-28T06:22:41.169Z,101387.69
2022-07-28T06:23:43.787Z,101390.56
2022-07-28T06:24:45.401Z,101392.75
2022-07-28T06:25:49.063Z,101397.47
2022-07-28T06:26:53.370Z,101398.47
2022-07-28T06:27:57.806Z,101395.28
2022-07-28T06:29:00.414Z,101396.78
2022-07-28T06:30:02.013Z,101397.44
2022-07-28T06:31:04.664Z,101396.78
2022-07-28T06:32:06.816Z,101393.25
2022-07-28T06:33:12.784Z,101399.81
2022-07-28T06:34:19.413Z,101388.53
2022-07-28T06:35:25.890Z,101385.00
2022-07-28T06:36:27.517Z,101389.38
2022-07-28T06:37:30.153Z,101396.44
2022-07-28T06:38:32.910Z,101395.78
2022-07-28T06:39:35.528Z,101388.53
2022-07-28T06:40:37.427Z,101399.13
2022-07-28T06:41:41.985Z,101400.16
2022-07-28T06:42:45.627Z,101402.00
2022-07-28T06:43:48.199Z,101395.78
2022-07-28T06:44:59.059Z,101396.09
2022-07-28T06:46:02.374Z,101404.19
2022-07-28T06:47:05.037Z,101400.69
2022-07-28T06:48:07.927Z,101400.84
2022-07-28T06:49:10.706Z,101396.44
2022-07-28T06:50:25.887Z,101397.41
2022-07-28T06:51:29.810Z,101391.66
2022-07-28T06:52:32.040Z,101395.34
2022-07-28T06:53:34.937Z,101397.84
2022-07-28T06:54:38.055Z,101391.44
2022-07-28T06:55:41.238Z,101393.72
2022-07-28T06:56:43.010Z,101391.84
2022-07-28T06:57:54.243Z,101396.19
2022-07-28T06:58:56.817Z,101389.28
2022-07-28T06:59:58.472Z,101388.56
2022-07-28T07:01:02.506Z,101392.28
2022-07-28T07:02:04.348Z,101389.75
2022-07-28T07:03:09.846Z,101392.28
2022-07-28T07:04:11.884Z,101392.44
2022-07-28T07:05:14.856Z,101392.88
2022-07-28T07:06:16.447Z,101393.84
2022-07-28T07:07:19.130Z,101393.34
2022-07-28T07:08:20.884Z,101393.97
2022-07-28T07:09:23.594Z,101391.97
2022-07-28T07:10:25.332Z,101393.63
2022-07-28T07:11:27.923Z,101395.31
2022-07-28T07:12:29.811Z,101384.34
2022-07-28T07:13:34.675Z,101380.81
2022-07-28T07:14:36.352Z,101386.38
2022-07-28T07:15:38.930Z,101387.41
2022-07-28T07:16:40.737Z,101377.78
2022-07-28T07:17:43.810Z,101383.53
2022-07-28T07:18:55.941Z,101380.56
2022-07-28T07:19:57.645Z,101377.16
2022-07-28T07:21:00.243Z,101380.91
2022-07-28T07:22:01.864Z,101384.31
2022-07-28T07:23:04.477Z,101376.56
2022-07-28T07:24:07.436Z,101374.69
2022-07-28T07:25:11.193Z,101377.41
2022-07-28T07:26:13.942Z,101375.19
2022-07-28T07:27:15.648Z,101378.72
2022-07-28T07:28:18.267Z,101373.16
2022-07-28T07:29:22.802Z,101369.06
2022-07-28T07:30:25.447Z,101371.41
2022-07-28T07:31:28.155Z,101380.69
2022-07-28T07:32:29.866Z,101370.16
2022-07-28T07:33:32.461Z,101369.44
2022-07-28T07:34:34.104Z,101369.91
2022-07-28T07:35:37.797Z,101372.25
2022-07-28T07:36:39.367Z,101368.06
2022-07-28T07:37:42.006Z,101374.03
2022-07-28T07:38:45.498Z,101368.13
2022-07-28T07:39:48.032Z,101370.84
2022-07-28T07:40:51.162Z,101373.53
2022-07-28T07:41:52.791Z,101373.34
2022-07-28T07:42:55.389Z,101371.66
2022-07-28T07:43:56.960Z,101371.66
2022-07-28T07:45:01.614Z,101368.31
2022-07-28T07:46:04.325Z,101369.69
2022-07-28T07:47:08.698Z,101367.34
2022-07-28T07:48:12.846Z,101369.38
2022-07-28T07:49:16.959Z,101366.84
2022-07-28T07:50:19.771Z,101366.84
2022-07-28T07:51:22.856Z,101361.66
2022-07-28T07:52:25.392Z,101364.72
2022-07-28T07:53:28.044Z,101364.72
2022-07-28T07:54:29.698Z,101366.38
2022-07-28T07:55:37.334Z,101365.00
2022-07-28T07:56:39.537Z,101364.84
2022-07-28T07:57:42.309Z,101365.31
2022-07-28T07:58:43.953Z,101367.81
2022-07-28T07:59:46.498Z,101365.81
2022-07-28T08:00:50.586Z,101363.75
2022-07-28T08:01:54.745Z,101371.66
2022-07-28T08:02:57.753Z,101366.25
2022-07-28T08:04:00.930Z,101366.25
2022-07-28T08:05:03.785Z,101365.25
2022-07-28T08:06:06.806Z,101366.25
2022-07-28T08:07:10.857Z,101369.63
2022-07-28T08:08:14.812Z,101371.31
2022-07-28T08:09:18.668Z,101367.78
2022-07-28T08:10:20.299Z,101375.19
2022-07-28T08:11:23.026Z,101361.88
2022-07-28T08:12:25.555Z,101362.06
2022-07-28T08:13:29.826Z,101374.91
2022-07-28T08:14:32.670Z,101357.00
2022-07-28T08:15:35.795Z,101362.41
2022-07-28T08:16:39.940Z,101363.44
2022-07-28T08:17:41.677Z,101355.16
2022-07-28T08:18:44.788Z,101363.44
2022-07-28T08:19:46.448Z,101358.72
2022-07-28T08:20:54.814Z,101363.25
2022-07-28T08:21:56.400Z,101353.47
2022-07-28T08:22:59.215Z,101361.78
2022-07-28T08:24:01.846Z,101355.03
2022-07-28T08:25:03.737Z,101355.69
2022-07-28T08:26:06.467Z,101357.00
2022-07-28T08:27:08.473Z,101353.78
2022-07-28T08:28:11.453Z,101355.56
2022-07-28T08:29:13.713Z,101351.31
2022-07-28T08:30:23.035Z,101357.00
2022-07-28T08:31:25.457Z,101345.84
2022-07-28T08:32:29.418Z,101353.41
2022-07-28T08:33:31.027Z,101360.13
2022-07-28T08:34:34.123Z,101356.88
2022-07-28T08:35:36.887Z,101350.25
2022-07-28T08:36:38.481Z,101353.66
2022-07-28T08:37:41.177Z,101354.50
2022-07-28T08:38:42.965Z,101347.03
2022-07-28T08:39:45.624Z,101349.22
2022-07-28T08:40:49.967Z,101349.69
2022-07-28T08:41:56.237Z,101344.75
2022-07-28T08:43:03.798Z,101344.56
2022-07-28T08:44:09.429Z,101341.84
2022-07-28T08:45:11.988Z,101341.84
2022-07-28T08:46:16.475Z,101342.50
2022-07-28T08:47:20.578Z,101337.94
2022-07-28T08:48:27.219Z,101340.25
2022-07-28T08:49:31.035Z,101334.69
2022-07-28T08:50:33.525Z,101346.16
2022-07-28T08:51:38.767Z,101340.75
2022-07-28T08:52:41.712Z,101337.38
2022-07-28T08:53:49.650Z,101338.41
2022-07-28T08:54:54.621Z,101336.38
2022-07-28T08:56:01.219Z,101338.72
2022-07-28T08:57:04.918Z,101333.94
2022-07-28T08:58:07.325Z,101342.06
2022-07-28T08:59:09.942Z,101346.44
2022-07-28T09:00:13.789Z,101339.19
2022-07-28T09:01:18.073Z,101332.94
2022-07-28T09:02:21.514Z,101331.25
2022-07-28T09:03:26.087Z,101323.34
2022-07-28T09:04:29.031Z,101324.53
2022-07-28T09:05:30.865Z,101328.06
2022-07-28T09:06:33.617Z,101335.16
2022-07-28T09:07:38.223Z,101335.16
2022-07-28T09:08:40.871Z,101329.56
2022-07-28T09:09:47.855Z,101335.34
2022-07-28T09:10:50.950Z,101330.28
2022-07-28T09:11:52.988Z,101341.47
2022-07-28T09:12:55.779Z,101334.38
2022-07-28T09:13:57.582Z,101335.06
2022-07-28T09:15:02.087Z,101331.97
2022-07-28T09:16:04.260Z,101334.50
2022-07-28T09:17:06.964Z,101332.47
2022-07-28T09:18:08.819Z,101332.09
2022-07-28T09:19:12.797Z,101329.84
2022-07-28T09:20:16.238Z,101331.53
2022-07-28T09:21:19.154Z,101326.94
2022-07-28T09:22:20.835Z,101335.72
2022-07-28T09:23:41.798Z,101331.16
2022-07-28T09:24:45.769Z,101324.25
2022-07-28T09:25:48.451Z,101327.16
2022-07-28T09:26:59.854Z,101325.47
2022-07-28T09:28:08.784Z,101324.44
2022-07-28T09:29:11.355Z,101323.44
2022-07-28T09:30:13.214Z,101323.88
2022-07-28T09:31:17.186Z,101326.22
2022-07-28T09:32:21.502Z,101333.13
2022-07-28T09:33:42.585Z,101330.41
2022-07-28T09:34:51.890Z,101329.75
2022-07-28T09:35:55.505Z,101331.44
2022-07-28T09:36:58.160Z,101327.25
2022-07-28T09:38:00.255Z,101327.72
2022-07-28T09:39:02.899Z,101331.06
2022-07-28T09:40:11.835Z,101328.66
2022-07-28T09:41:18.607Z,101317.47
2022-07-28T09:42:21.761Z,101323.50
2022-07-28T09:43:32.168Z,101323.81
2022-07-28T09:44:34.968Z,101321.75
2022-07-28T09:45:36.700Z,101311.56
2022-07-28T09:46:39.458Z,101315.75
2022-07-28T09:47:41.403Z,101322.84
2022-07-28T09:48:53.726Z,101313.72
2022-07-28T09:49:58.030Z,101318.09
2022-07-28T09:51:11.959Z,101316.59
2022-07-28T09:52:14.669Z,101318.44
2022-07-28T09:53:23.008Z,101316.41
2022-07-28T09:54:26.245Z,101315.19
2022-07-28T09:55:28.049Z,101314.00
2022-07-28T09:56:32.471Z,101312.81
2022-07-28T09:57:36.862Z,101313.06
2022-07-28T09:58:42.051Z,101305.59
2022-07-28T09:59:49.430Z,101307.47
2022-07-28T10:01:04.195Z,101304.56
2022-07-28T10:02:06.849Z,101302.88
2022-07-28T10:03:11.505Z,101303.72
2022-07-28T10:04:14.265Z,101309.81
2022-07-28T10:05:17.444Z,101296.72
2022-07-28T10:06:27.326Z,101305.50
2022-07-28T10:07:34.433Z,101308.00
2022-07-28T10:08:42.205Z,101312.38
2022-07-28T10:09:58.283Z,101301.75
2022-07-28T10:11:00.671Z,101296.34
2022-07-28T10:12:21.664Z,101302.56
2022-07-28T10:13:23.378Z,101301.75
2022-07-28T10:14:33.708Z,101289.88
2022-07-28T10:15:55.716Z,101297.16
2022-07-28T10:17:05.883Z,101288.88
2022-07-28T10:18:07.998Z,101291.00
2022-07-28T10:19:15.334Z,101300.22
2022-07-28T10:20:19.046Z,101294.03
2022-07-28T10:21:24.913Z,101292.63
2022-07-28T10:22:28.797Z,101296.66
2022-07-28T10:23:31.573Z,101291.88
2022-07-28T10:24:39.949Z,101286.69
2022-07-28T10:25:44.308Z,101303.63
2022-07-28T10:26:48.649Z,101290.91
2022-07-28T10:27:50.747Z,101300.91
2022-07-28T10:28:55.077Z,101295.28
2022-07-28T10:29:58.983Z,101286.97
2022-07-28T10:31:03.759Z,101293.41
2022-07-28T10:32:07.865Z,101288.84
2022-07-28T10:33:14.991Z,101284.28
2022-07-28T10:34:24.823Z,101279.50
2022-07-28T10:35:30.086Z,101279.50
2022-07-28T10:36:33.368Z,101287.22
2022-07-28T10:37:39.844Z,101276.00
2022-07-28T10:38:42.876Z,101279.38
2022-07-28T10:39:49.339Z,101273.09
2022-07-28T10:40:52.272Z,101279.38
2022-07-28T10:41:57.255Z,101286.09
2022-07-28T10:43:00.357Z,101280.66
2022-07-28T10:44:03.954Z,101276.28
2022-07-28T10:45:10.045Z,101272.38
2022-07-28T10:46:16.041Z,101269.84
2022-07-28T10:47:20.582Z,101274.78
2022-07-28T10:48:23.648Z,101268.53
2022-07-28T10:49:32.771Z,101266.84
2022-07-28T10:50:37.048Z,101264.81
2022-07-28T10:52:01.275Z,101260.59
2022-07-28T10:53:06.949Z,101263.50
2022-07-28T10:54:17.738Z,101261.44
2022-07-28T10:55:37.227Z,101260.03
2022-07-28T10:57:04.801Z,101261.53
2022-07-28T10:58:14.428Z,101268.41
2022-07-28T10:59:32.020Z,101263.66
2022-07-28T11:00:53.066Z,101253.47
2022-07-28T11:01:58.524Z,101256.78
2022-07-28T11:03:02.254Z,101262.03
2022-07-28T11:04:52.143Z,101256.63
2022-07-28T11:05:56.470Z,101250.28
2022-07-28T11:07:10.054Z,101255.25
2022-07-28T11:08:30.152Z,101244.25
2022-07-28T11:09:31.762Z,101253.84
2022-07-28T11:10:46.657Z,101256.38
2022-07-28T11:11:52.294Z,101252.63
2022-07-28T11:12:56.409Z,101254.47
2022-07-28T11:14:32.036Z,101247.81
2022-07-28T11:15:36.145Z,101244.88
2022-07-28T11:16:37.955Z,101249.06
2022-07-28T11:17:57.391Z,101244.09
2022-07-28T11:19:07.787Z,101249.97
2022-07-28T11:21:08.666Z,101249.34
2022-07-28T11:22:28.295Z,101249.97
2022-07-28T11:23:46.695Z,101248.72
2022-07-28T11:25:22.333Z,101254.97
2022-07-28T11:26:30.774Z,101253.34
2022-07-28T11:28:04.458Z,101250.63
2022-07-28T11:29:16.565Z,101250.41
2022-07-28T11:30:53.312Z,101242.50
2022-07-28T11:32:06.312Z,101240.81
2022-07-28T11:33:09.153Z,101243.75
2022-07-28T11:34:11.970Z,101247.13
2022-07-28T11:35:14.914Z,101241.50
2022-07-28T11:36:18.830Z,101239.22
2022-07-28T11:37:20.458Z,101244.06
2022-07-28T11:38:23.774Z,101237.22
2022-07-28T11:39:27.728Z,101234.75
2022-07-28T11:40:31.295Z,101237.91
2022-07-28T11:41:35.598Z,101236.03
2022-07-28T11:42:37.319Z,101232.09
2022-07-28T11:43:40.983Z,101228.97
2022-07-28T11:44:43.869Z,101232.34
2022-07-28T11:45:50.310Z,101237.38
2022-07-28T11:47:17.096Z,101222.75
2022-07-28T11:48:21.400Z,101223.41
2022-07-28T11:49:27.403Z,101217.75
2022-07-28T11:50:30.349Z,101222.59
2022-07-28T11:51:38.809Z,101221.56
2022-07-28T11:52:56.599Z,101224.91
2022-07-28T11:53:58.246Z,101221.97
2022-07-28T11:55:02.025Z,101227.88
2022-07-28T11:56:05.145Z,101218.53
2022-07-28T11:57:09.792Z,101218.31
2022-07-28T11:58:25.526Z,101216.44
2022-07-28T11:59:36.437Z,101221.69
2022-07-28T12:00:39.509Z,101214.56
2022-07-28T12:01:52.063Z,101213.31
2022-07-28T12:02:54.712Z,101215.00
2022-07-28T12:03:59.137Z,101203.75
2022-07-28T12:05:10.937Z,101214.19
2022-07-28T12:06:13.362Z,101216.28
2022-07-28T12:07:18.413Z,101210.88
2022-07-28T12:08:21.056Z,101225.94
2022-07-28T12:09:37.068Z,101210.91
2022-07-28T12:10:54.529Z,101212.19
2022-07-28T12:11:57.163Z,101211.78
2022-07-28T12:13:02.080Z,101207.63
2022-07-28T12:14:05.375Z,101214.09
2022-07-28T12:15:08.801Z,101206.41
2022-07-28T12:16:11.065Z,101201.41
2022-07-28T12:17:14.903Z,101216.06
2022-07-28T12:18:17.905Z,101200.16
2022-07-28T12:19:20.360Z,101200.63
2022-07-28T12:20:23.175Z,101191.88
2022-07-28T12:21:37.305Z,101197.50
2022-07-28T12:22:58.266Z,101184.34
2022-07-28T12:24:01.040Z,101194.81